createdAt,value
2017-12-16T00:00:12.472Z,88.30
2017-12-16T00:02:39.917Z,88.30
2017-12-16T00:05:07.336Z,88.30
2017-12-16T00:07:35.524Z,88.40
2017-12-16T00:10:03.740Z,88.60
2017-12-16T00:12:31.212Z,88.60
2017-12-16T00:14:58.664Z,88.60
2017-12-16T00:17:26.152Z,88.50
2017-12-16T00:19:53.583Z,88.60
2017-12-16T00:22:21.088Z,88.50
2017-12-16T00:24:48.516Z,89.10
2017-12-16T00:27:16.026Z,88.60
2017-12-16T00:29:44.216Z,88.40
2017-12-16T00:32:11.680Z,88.40
2017-12-16T00:34:39.152Z,88.30
2017-12-16T00:37:06.579Z,88.30
2017-12-16T00:39:34.812Z,88.30
2017-12-16T00:42:02.276Z,88.30
2017-12-16T00:44:29.696Z,88.40
2017-12-16T00:46:57.217Z,88.30
2017-12-16T00:49:24.633Z,88.00
2017-12-16T00:51:52.161Z,87.90
2017-12-16T00:54:19.629Z,87.80
2017-12-16T00:56:47.142Z,88.00
2017-12-16T00:59:14.552Z,88.00
2017-12-16T01:01:42.138Z,88.00
2017-12-16T01:04:10.324Z,88.20
2017-12-16T01:06:37.764Z,88.20
2017-12-16T01:09:05.958Z,88.10
2017-12-16T01:11:34.173Z,88.00
2017-12-16T01:14:02.500Z,88.00
2017-12-16T01:16:30.068Z,88.00
2017-12-16T01:18:57.514Z,88.00
2017-12-16T01:21:24.928Z,88.00
2017-12-16T01:23:52.448Z,87.80
2017-12-16T01:26:19.865Z,87.60
2017-12-16T01:28:47.384Z,87.80
2017-12-16T01:31:14.808Z,87.90
2017-12-16T01:33:54.132Z,87.90
2017-12-16T01:39:37.679Z,88.10
2017-12-16T01:42:05.153Z,88.20
2017-12-16T01:44:32.624Z,88.30
2017-12-16T01:47:00.088Z,88.40
2017-12-16T01:49:27.556Z,88.40
2017-12-16T01:51:55.131Z,88.50
2017-12-16T01:54:23.309Z,88.50
2017-12-16T01:56:50.728Z,88.50
2017-12-16T01:59:18.317Z,88.40
2017-12-16T02:01:45.728Z,88.40
2017-12-16T02:04:13.164Z,88.50
2017-12-16T02:06:41.389Z,88.30
2017-12-16T02:09:08.855Z,88.30
2017-12-16T02:11:36.296Z,88.30
2017-12-16T02:14:03.792Z,88.30
2017-12-16T02:16:31.320Z,88.30
2017-12-16T02:18:58.735Z,88.30
2017-12-16T02:21:26.167Z,88.30
2017-12-16T02:23:53.684Z,88.30
2017-12-16T02:26:21.116Z,88.60
2017-12-16T02:28:49.333Z,88.00
2017-12-16T02:31:16.800Z,87.90
2017-12-16T02:33:44.216Z,87.90
2017-12-16T02:36:11.741Z,87.80
2017-12-16T02:38:39.170Z,87.80
2017-12-16T02:41:06.676Z,87.80
2017-12-16T02:43:34.091Z,87.70
2017-12-16T02:46:01.621Z,87.70
2017-12-16T02:48:29.809Z,87.50
2017-12-16T02:50:57.273Z,87.50
2017-12-16T02:53:24.693Z,87.60
2017-12-16T02:55:52.213Z,87.60
2017-12-16T02:58:19.623Z,87.30
2017-12-16T03:00:47.056Z,87.20
2017-12-16T03:03:14.492Z,87.30
2017-12-16T03:05:42.692Z,87.30
2017-12-16T03:08:10.112Z,87.30
2017-12-16T03:10:37.534Z,87.10
2017-12-16T03:13:05.008Z,87.00
2017-12-16T03:15:32.585Z,86.90
2017-12-16T03:18:00.771Z,86.90
2017-12-16T03:20:28.241Z,86.90
2017-12-16T03:22:55.692Z,86.90
2017-12-16T03:25:23.881Z,86.70
2017-12-16T03:27:52.100Z,87.00
2017-12-16T03:30:19.525Z,87.00
2017-12-16T03:32:48.703Z,87.10
2017-12-16T03:35:16.284Z,86.90
2017-12-16T03:37:43.806Z,87.10
2017-12-16T03:40:11.280Z,87.30
2017-12-16T03:42:38.712Z,87.20
2017-12-16T03:45:06.133Z,87.20
2017-12-16T03:47:33.593Z,87.90
2017-12-16T03:50:00.984Z,87.20
2017-12-16T03:52:28.432Z,87.30
2017-12-16T03:54:55.896Z,87.40
2017-12-16T03:57:23.364Z,87.50
2017-12-16T03:59:50.788Z,87.50
2017-12-16T04:02:18.220Z,87.30
2017-12-16T04:04:45.672Z,87.20
2017-12-16T04:07:13.092Z,87.30
2017-12-16T04:09:40.520Z,87.10
2017-12-16T04:12:07.972Z,87.10
2017-12-16T04:14:35.484Z,87.30
2017-12-16T04:17:02.916Z,87.30
2017-12-16T04:19:30.336Z,87.10
2017-12-16T04:21:57.860Z,87.10
2017-12-16T04:24:25.284Z,87.20
2017-12-16T04:26:52.796Z,87.30
2017-12-16T04:29:20.217Z,87.30
2017-12-16T04:31:47.734Z,87.70
2017-12-16T04:34:15.924Z,87.80
2017-12-16T04:36:43.343Z,87.90
2017-12-16T04:39:10.776Z,88.00
2017-12-16T04:41:38.199Z,87.70
2017-12-16T04:44:06.420Z,87.00
2017-12-16T04:46:33.847Z,87.00
2017-12-16T04:49:02.032Z,87.20
2017-12-16T04:51:29.546Z,86.30
2017-12-16T04:53:57.727Z,86.10
2017-12-16T04:56:25.152Z,86.10
2017-12-16T04:58:52.672Z,85.80
2017-12-16T05:01:20.084Z,85.80
2017-12-16T05:03:47.605Z,85.70
2017-12-16T05:06:15.021Z,85.00
2017-12-16T05:08:42.543Z,84.60
2017-12-16T05:11:10.740Z,84.80
2017-12-16T05:13:38.168Z,84.70
2017-12-16T05:16:06.490Z,84.60
2017-12-16T05:18:34.652Z,84.00
2017-12-16T05:21:02.831Z,84.00
2017-12-16T05:23:31.189Z,83.90
2017-12-16T05:25:59.336Z,83.90
2017-12-16T05:28:26.807Z,83.90
2017-12-16T05:30:54.228Z,83.60
2017-12-16T05:33:21.661Z,83.50
2017-12-16T05:35:49.083Z,83.20
2017-12-16T05:38:17.277Z,84.50
2017-12-16T05:40:45.466Z,85.20
2017-12-16T05:43:13.700Z,85.50
2017-12-16T05:45:41.156Z,85.40
2017-12-16T05:48:08.652Z,85.70
2017-12-16T05:50:36.066Z,85.90
2017-12-16T05:53:04.281Z,85.90
2017-12-16T05:55:31.746Z,85.90
2017-12-16T05:57:59.222Z,85.90
2017-12-16T06:00:26.657Z,86.10
2017-12-16T06:02:54.875Z,86.30
2017-12-16T06:05:22.348Z,86.20
2017-12-16T06:07:49.809Z,86.20
2017-12-16T06:10:17.984Z,86.40
2017-12-16T06:12:46.340Z,86.40
2017-12-16T06:15:13.855Z,86.40
2017-12-16T06:17:42.023Z,86.90
2017-12-16T06:20:09.512Z,86.90
2017-12-16T06:22:36.936Z,87.10
2017-12-16T06:25:04.492Z,87.10
2017-12-16T06:27:31.907Z,87.10
2017-12-16T06:29:59.400Z,87.00
2017-12-16T06:32:26.819Z,86.90
2017-12-16T06:34:54.352Z,87.00
2017-12-16T06:37:21.802Z,87.00
2017-12-16T06:39:49.984Z,86.60
2017-12-16T06:42:17.457Z,87.30
2017-12-16T06:44:44.871Z,86.50
2017-12-16T06:47:13.816Z,86.60
2017-12-16T06:49:42.001Z,86.70
2017-12-16T06:52:09.489Z,86.70
2017-12-16T06:54:36.920Z,87.00
2017-12-16T06:57:04.348Z,87.10
2017-12-16T06:59:31.776Z,87.20
2017-12-16T07:01:59.991Z,87.10
2017-12-16T07:04:27.453Z,87.10
2017-12-16T07:06:54.919Z,87.20
2017-12-16T07:09:22.389Z,87.40
2017-12-16T07:11:49.864Z,87.30
2017-12-16T07:14:17.432Z,87.20
2017-12-16T07:16:45.004Z,87.30
2017-12-16T07:19:12.439Z,87.50
2017-12-16T07:21:40.668Z,87.20
2017-12-16T07:24:08.092Z,87.10
2017-12-16T07:26:35.519Z,87.30
2017-12-16T07:29:02.945Z,87.50
2017-12-16T07:31:31.153Z,87.30
2017-12-16T07:33:58.628Z,87.30
2017-12-16T07:36:26.053Z,87.10
2017-12-16T07:38:53.483Z,87.30
2017-12-16T07:41:20.936Z,87.50
2017-12-16T07:43:48.404Z,87.20
2017-12-16T07:46:15.868Z,87.00
2017-12-16T07:48:43.442Z,87.10
2017-12-16T07:51:11.599Z,86.40
2017-12-16T07:53:39.796Z,86.00
2017-12-16T07:56:07.980Z,85.60
2017-12-16T07:58:36.176Z,86.30
2017-12-16T08:01:03.595Z,86.30
2017-12-16T08:03:31.238Z,85.80
2017-12-16T08:05:59.421Z,86.40
2017-12-16T08:08:26.893Z,86.40
2017-12-16T08:10:54.335Z,86.70
2017-12-16T08:13:22.516Z,86.60
2017-12-16T08:15:50.772Z,86.60
2017-12-16T08:18:18.312Z,86.50
2017-12-16T08:20:45.743Z,86.60
2017-12-16T08:23:13.959Z,86.90
2017-12-16T08:25:41.469Z,86.90
2017-12-16T08:28:08.872Z,87.10
2017-12-16T08:30:37.088Z,87.20
2017-12-16T08:33:05.520Z,87.20
2017-12-16T08:35:32.959Z,87.30
2017-12-16T08:38:00.421Z,87.20
2017-12-16T08:40:27.855Z,87.40
2017-12-16T08:42:57.090Z,87.40
2017-12-16T08:45:25.269Z,87.80
2017-12-16T08:47:53.460Z,87.80
2017-12-16T08:50:21.045Z,87.80
2017-12-16T08:52:50.188Z,87.90
2017-12-16T08:55:17.716Z,87.90
2017-12-16T08:57:45.140Z,87.90
2017-12-16T09:00:12.561Z,87.90
2017-12-16T09:02:40.068Z,88.10
2017-12-16T09:05:07.476Z,88.40
2017-12-16T09:07:35.676Z,88.20
2017-12-16T09:10:03.098Z,88.20
2017-12-16T09:12:30.533Z,88.30
2017-12-16T09:14:58.097Z,88.20
2017-12-16T09:17:26.264Z,88.10
2017-12-16T09:19:54.469Z,87.50
2017-12-16T09:22:21.916Z,87.50
2017-12-16T09:24:50.092Z,86.80
2017-12-16T09:27:18.279Z,86.40
2017-12-16T09:29:46.477Z,85.50
2017-12-16T09:32:14.788Z,85.40
2017-12-16T09:34:42.260Z,85.30
2017-12-16T09:37:09.724Z,85.30
2017-12-16T09:39:37.200Z,85.70
2017-12-16T09:42:04.620Z,85.70
2017-12-16T09:44:32.048Z,85.80
2017-12-16T09:46:59.506Z,85.60
2017-12-16T09:49:26.924Z,86.20
2017-12-16T09:51:54.377Z,86.30
2017-12-16T09:54:21.805Z,86.10
2017-12-16T09:56:49.587Z,86.10
2017-12-16T09:59:17.024Z,86.10
2017-12-16T10:01:45.212Z,87.00
2017-12-16T10:04:13.407Z,87.30
2017-12-16T10:06:41.591Z,87.70
2017-12-16T10:09:09.792Z,87.60
2017-12-16T10:11:37.229Z,87.60
2017-12-16T10:14:04.748Z,87.40
2017-12-16T10:16:32.216Z,87.80
2017-12-16T10:18:59.684Z,87.90
2017-12-16T10:21:27.158Z,87.30
2017-12-16T10:23:54.581Z,86.40
2017-12-16T10:26:22.008Z,85.00
2017-12-16T10:28:49.566Z,84.70
2017-12-16T10:31:16.977Z,84.50
2017-12-16T10:33:44.404Z,84.20
2017-12-16T10:36:11.835Z,83.80
2017-12-16T10:38:40.015Z,84.00
2017-12-16T10:41:07.535Z,83.40
2017-12-16T10:43:34.945Z,84.00
2017-12-16T10:46:02.392Z,83.40
2017-12-16T10:48:29.832Z,83.90
2017-12-16T10:50:57.260Z,83.30
2017-12-16T10:53:24.773Z,82.90
2017-12-16T10:55:52.248Z,82.50
2017-12-16T10:58:19.816Z,81.90
2017-12-16T11:00:53.612Z,81.50
2017-12-16T11:03:21.796Z,81.30
2017-12-16T11:05:49.996Z,80.80
2017-12-16T11:08:17.415Z,80.80
2017-12-16T11:10:44.850Z,80.90
2017-12-16T11:13:12.315Z,80.50
2017-12-16T11:15:39.771Z,80.50
2017-12-16T11:18:07.212Z,80.00
2017-12-16T11:20:34.635Z,80.90
2017-12-16T11:23:02.964Z,79.90
2017-12-16T11:25:30.388Z,79.50
2017-12-16T11:27:57.857Z,79.50
2017-12-16T11:30:25.324Z,79.20
2017-12-16T11:32:53.717Z,78.70
2017-12-16T11:35:21.180Z,79.70
2017-12-16T11:37:48.614Z,78.00
2017-12-16T11:40:16.126Z,78.30
2017-12-16T11:42:43.556Z,78.10
2017-12-16T11:45:11.731Z,77.90
2017-12-16T11:47:39.251Z,77.90
2017-12-16T11:50:06.818Z,78.50
2017-12-16T11:52:34.988Z,79.90
2017-12-16T11:55:02.418Z,79.90
2017-12-16T11:57:29.845Z,79.40
2017-12-16T11:59:57.520Z,77.80
2017-12-16T12:02:24.952Z,76.30
2017-12-16T12:04:53.278Z,76.20
2017-12-16T12:07:20.756Z,76.20
2017-12-16T12:09:48.311Z,77.70
2017-12-16T12:12:15.792Z,76.60
2017-12-16T12:14:43.215Z,75.10
2017-12-16T12:17:10.640Z,75.40
2017-12-16T12:19:38.096Z,75.70
2017-12-16T12:22:05.523Z,76.00
2017-12-16T12:24:32.946Z,75.10
2017-12-16T12:27:00.430Z,75.40
2017-12-16T12:29:28.575Z,75.10
2017-12-16T12:31:55.999Z,75.00
2017-12-16T12:34:23.432Z,74.90
2017-12-16T12:36:50.852Z,73.40
2017-12-16T12:39:18.471Z,74.00
2017-12-16T12:41:45.884Z,75.10
2017-12-16T12:44:13.341Z,74.20
2017-12-16T12:46:40.769Z,74.30
2017-12-16T12:49:08.205Z,74.20
2017-12-16T12:51:35.634Z,75.50
2017-12-16T12:54:03.098Z,76.50
2017-12-16T12:56:31.252Z,77.00
2017-12-16T12:58:59.479Z,75.80
2017-12-16T13:01:26.905Z,75.70
2017-12-16T13:03:55.111Z,75.30
2017-12-16T13:06:22.534Z,75.30
2017-12-16T13:08:50.052Z,75.10
2017-12-16T13:11:18.340Z,79.50
2017-12-16T13:13:45.807Z,79.50
2017-12-16T13:16:13.279Z,80.30
2017-12-16T13:18:40.700Z,81.10
2017-12-16T13:21:08.150Z,78.50
2017-12-16T13:23:35.558Z,77.90
2017-12-16T13:26:03.771Z,75.70
2017-12-16T13:28:31.245Z,75.70
2017-12-16T13:30:58.716Z,75.50
2017-12-16T13:33:26.132Z,75.30
2017-12-16T13:35:53.652Z,74.60
2017-12-16T13:38:21.224Z,76.30
2017-12-16T13:40:49.413Z,76.70
2017-12-16T13:43:16.884Z,76.70
2017-12-16T13:45:44.311Z,76.20
2017-12-16T13:48:11.731Z,77.40
2017-12-16T13:50:39.289Z,78.80
2017-12-16T13:53:08.435Z,76.60
2017-12-16T13:55:35.864Z,76.60
2017-12-16T13:58:03.337Z,76.10
2017-12-16T14:00:31.528Z,75.20
2017-12-16T14:03:00.027Z,75.20
2017-12-16T14:05:27.492Z,74.80
2017-12-16T14:07:54.916Z,74.90
2017-12-16T14:10:22.530Z,75.20
2017-12-16T14:12:50.726Z,76.70
2017-12-16T14:15:18.144Z,76.60
2017-12-16T14:17:45.675Z,76.20
2017-12-16T14:20:13.096Z,75.80
2017-12-16T14:22:42.331Z,79.70
2017-12-16T14:25:09.811Z,79.70
2017-12-16T14:27:37.236Z,81.00
2017-12-16T14:30:04.743Z,81.00
2017-12-16T14:32:32.164Z,81.70
2017-12-16T14:34:59.686Z,80.80
2017-12-16T14:37:27.860Z,78.40
2017-12-16T14:39:55.284Z,78.30
2017-12-16T14:42:22.720Z,77.70
2017-12-16T14:44:50.176Z,79.00
2017-12-16T14:47:17.653Z,78.70
2017-12-16T14:49:45.068Z,78.20
2017-12-16T14:52:12.596Z,79.50
2017-12-16T14:54:40.028Z,81.40
2017-12-16T14:57:08.244Z,79.30
2017-12-16T14:59:35.711Z,79.30
2017-12-16T15:02:03.183Z,78.80
2017-12-16T15:04:30.627Z,78.60
2017-12-16T15:06:58.812Z,77.60
2017-12-16T15:09:27.132Z,78.90
2017-12-16T15:11:54.596Z,78.30
2017-12-16T15:14:22.068Z,78.30
2017-12-16T15:16:49.745Z,79.60
2017-12-16T15:19:17.923Z,81.60
2017-12-16T15:21:45.401Z,81.60
2017-12-16T15:24:12.872Z,81.60
2017-12-16T15:26:40.337Z,82.60
2017-12-16T15:29:07.824Z,82.80
2017-12-16T15:31:35.235Z,83.20
2017-12-16T15:34:02.663Z,83.30
2017-12-16T15:36:30.084Z,83.60
2017-12-16T15:38:58.267Z,83.40
2017-12-16T15:41:25.725Z,83.40
2017-12-16T15:43:53.140Z,82.40
2017-12-16T15:46:20.596Z,82.80
2017-12-16T15:48:48.764Z,83.70
2017-12-16T15:51:16.986Z,82.60
2017-12-16T15:53:44.451Z,82.60
2017-12-16T15:56:12.640Z,82.30
2017-12-16T15:58:40.064Z,82.30
2017-12-16T16:01:07.490Z,82.80
2017-12-16T16:03:34.904Z,83.10
2017-12-16T16:06:02.455Z,83.40
2017-12-16T16:08:29.927Z,82.70
2017-12-16T16:10:57.308Z,82.00
2017-12-16T16:13:24.731Z,81.90
2017-12-16T16:15:52.164Z,83.10
2017-12-16T16:18:19.691Z,83.90
2017-12-16T16:20:47.233Z,84.20
2017-12-16T16:23:16.460Z,84.90
2017-12-16T16:25:43.912Z,84.80
2017-12-16T16:28:11.323Z,85.00
2017-12-16T16:30:38.744Z,85.30
2017-12-16T16:33:07.078Z,85.40
2017-12-16T16:35:34.521Z,85.70
2017-12-16T16:38:01.984Z,85.80
2017-12-16T16:40:29.408Z,85.80
2017-12-16T16:42:57.848Z,86.00
2017-12-16T16:45:25.308Z,86.00
2017-12-16T16:47:52.728Z,86.10
2017-12-16T16:50:20.268Z,86.30
2017-12-16T16:52:48.747Z,86.40
2017-12-16T16:55:17.033Z,86.60
2017-12-16T16:57:45.199Z,86.70
2017-12-16T17:00:13.380Z,86.80
2017-12-16T17:02:42.556Z,86.90
2017-12-16T17:05:09.988Z,86.90
2017-12-16T17:07:37.454Z,87.00
2017-12-16T17:10:04.921Z,87.10
2017-12-16T17:12:32.397Z,87.00
2017-12-16T17:14:59.867Z,87.20
2017-12-16T17:17:28.036Z,87.20
2017-12-16T17:19:55.464Z,87.20
2017-12-16T17:22:22.991Z,87.10
2017-12-16T17:24:50.408Z,87.10
2017-12-16T17:27:17.829Z,87.20
2017-12-16T17:29:45.300Z,86.90
2017-12-16T17:32:12.755Z,86.50
2017-12-16T17:34:40.236Z,86.30
2017-12-16T17:37:07.660Z,86.00
2017-12-16T17:39:35.173Z,85.90
2017-12-16T17:42:02.645Z,86.10
2017-12-16T17:44:30.112Z,86.40
2017-12-16T17:46:57.547Z,86.80
2017-12-16T17:49:25.057Z,86.60
2017-12-16T17:51:52.504Z,86.60
2017-12-16T17:54:20.692Z,87.00
2017-12-16T17:56:48.900Z,87.10
2017-12-16T17:59:16.328Z,87.10
2017-12-16T18:01:43.769Z,87.10
2017-12-16T18:04:11.192Z,87.10
2017-12-16T18:06:38.609Z,87.10
2017-12-16T18:09:06.032Z,87.10
2017-12-16T18:11:33.447Z,86.90
2017-12-16T18:14:00.868Z,86.70
2017-12-16T18:16:28.284Z,86.80
2017-12-16T18:18:55.822Z,86.70
2017-12-16T18:21:24.028Z,86.70
2017-12-16T18:23:51.460Z,87.40
2017-12-16T18:26:18.950Z,86.70
2017-12-16T18:28:46.366Z,86.50
2017-12-16T18:31:13.792Z,86.40
2017-12-16T18:33:41.354Z,86.30
2017-12-16T18:36:08.786Z,86.40
2017-12-16T18:38:36.189Z,86.40
2017-12-16T18:41:03.648Z,86.40
2017-12-16T18:43:31.132Z,86.50
2017-12-16T18:45:58.555Z,86.60
2017-12-16T18:48:26.892Z,86.50
2017-12-16T18:50:55.056Z,86.50
2017-12-16T18:53:23.263Z,86.40
2017-12-16T18:55:50.708Z,86.30
2017-12-16T18:58:18.896Z,86.40
2017-12-16T19:00:47.117Z,86.20
2017-12-16T19:03:15.604Z,86.20
2017-12-16T19:05:43.033Z,86.20
2017-12-16T19:08:10.455Z,86.10
2017-12-16T19:10:37.880Z,86.00
2017-12-16T19:13:07.076Z,85.80
2017-12-16T19:15:34.524Z,85.70
2017-12-16T19:18:01.915Z,85.60
2017-12-16T19:20:29.424Z,85.60
2017-12-16T19:22:57.752Z,85.80
2017-12-16T19:25:25.172Z,85.70
2017-12-16T19:27:52.655Z,85.80
2017-12-16T19:30:20.816Z,85.80
2017-12-16T19:32:49.004Z,85.90
2017-12-16T19:35:17.218Z,86.90
2017-12-16T19:37:44.628Z,86.40
2017-12-16T19:40:12.068Z,86.60
2017-12-16T19:42:39.904Z,86.30
2017-12-16T19:45:08.117Z,86.60
2017-12-16T19:47:35.613Z,86.40
2017-12-16T19:50:03.061Z,86.50
2017-12-16T19:52:30.499Z,85.80
2017-12-16T19:54:58.712Z,86.60
2017-12-16T19:57:26.149Z,86.50
2017-12-16T19:59:53.589Z,86.90
2017-12-16T20:02:21.033Z,86.90
2017-12-16T20:04:48.474Z,86.80
2017-12-16T20:07:16.658Z,87.00
2017-12-16T20:09:44.861Z,86.60
2017-12-16T20:12:12.434Z,86.60
2017-12-16T20:14:40.600Z,86.40
2017-12-16T20:17:08.784Z,86.00
2017-12-16T20:19:36.980Z,86.00
2017-12-16T20:22:04.396Z,86.00
2017-12-16T20:24:31.863Z,85.70
2017-12-16T20:26:59.279Z,85.40
2017-12-16T20:29:27.468Z,85.20
2017-12-16T20:31:55.673Z,85.30
2017-12-16T20:34:23.087Z,85.30
2017-12-16T20:36:50.612Z,85.80
2017-12-16T20:39:18.096Z,86.00
2017-12-16T20:41:45.554Z,85.20
2017-12-16T20:44:12.997Z,85.20
2017-12-16T20:46:41.210Z,85.10
2017-12-16T20:49:08.808Z,85.10
2017-12-16T20:51:36.242Z,84.90
2017-12-16T20:54:03.729Z,84.60
2017-12-16T20:56:31.156Z,85.10
2017-12-16T20:58:58.579Z,85.20
2017-12-16T21:01:26.134Z,85.40
2017-12-16T21:03:53.540Z,85.40
2017-12-16T21:06:21.036Z,85.70
2017-12-16T21:08:49.221Z,85.50
2017-12-16T21:11:17.407Z,86.70
2017-12-16T21:13:45.611Z,86.70
2017-12-16T21:16:13.801Z,85.90
2017-12-16T21:18:41.980Z,84.50
2017-12-16T21:21:10.168Z,85.00
2017-12-16T21:23:38.360Z,85.30
2017-12-16T21:26:06.573Z,85.30
2017-12-16T21:28:33.985Z,85.30
2017-12-16T21:31:01.508Z,84.60
2017-12-16T21:33:28.920Z,85.10
2017-12-16T21:35:56.336Z,84.50
2017-12-16T21:38:23.756Z,84.60
2017-12-16T21:40:51.163Z,82.80
2017-12-16T21:43:18.604Z,84.00
2017-12-16T21:45:47.560Z,83.50
2017-12-16T21:48:15.020Z,83.50
2017-12-16T21:50:42.431Z,83.50
2017-12-16T21:53:10.064Z,84.20
2017-12-16T21:55:38.219Z,84.90
2017-12-16T21:58:06.435Z,85.40
2017-12-16T22:00:33.843Z,85.30
2017-12-16T22:03:01.264Z,85.10
2017-12-16T22:05:28.699Z,84.90
2017-12-16T22:07:56.880Z,84.00
2017-12-16T22:10:24.401Z,84.00
2017-12-16T22:12:51.834Z,84.50
2017-12-16T22:15:19.336Z,83.50
2017-12-16T22:17:46.910Z,83.60
2017-12-16T22:20:15.111Z,83.10
2017-12-16T22:22:43.244Z,82.60
2017-12-16T22:25:10.664Z,82.50
2017-12-16T22:27:38.980Z,83.10
2017-12-16T22:30:06.436Z,84.10
2017-12-16T22:32:33.852Z,83.60
2017-12-16T22:35:02.101Z,83.00
2017-12-16T22:37:30.256Z,82.90
2017-12-16T22:39:58.420Z,84.20
2017-12-16T22:42:26.607Z,84.50
2017-12-16T22:44:54.792Z,84.30
2017-12-16T22:47:22.975Z,83.70
2017-12-16T22:49:51.165Z,83.30
2017-12-16T22:52:19.388Z,83.80
2017-12-16T22:54:46.816Z,83.70
2017-12-16T22:57:15.036Z,83.80
2017-12-16T22:59:42.461Z,83.70
2017-12-16T23:02:09.867Z,83.90
2017-12-16T23:04:37.442Z,84.60
2017-12-16T23:07:05.627Z,83.50
2017-12-16T23:09:33.812Z,83.70
2017-12-16T23:12:01.283Z,83.60
2017-12-16T23:14:29.448Z,82.80
2017-12-16T23:16:57.640Z,81.10
2017-12-16T23:19:25.841Z,81.80
2017-12-16T23:21:53.307Z,81.70
2017-12-16T23:24:20.774Z,80.70
2017-12-16T23:26:48.199Z,81.20
2017-12-16T23:29:15.612Z,81.70
2017-12-16T23:31:43.036Z,82.40
2017-12-16T23:34:10.452Z,82.90
2017-12-16T23:36:37.926Z,81.20
2017-12-16T23:39:06.086Z,81.30
2017-12-16T23:41:34.269Z,81.20
2017-12-16T23:44:02.490Z,81.60
2017-12-16T23:46:29.887Z,81.60
2017-12-16T23:48:57.362Z,81.60
2017-12-16T23:51:24.775Z,82.70
2017-12-16T23:53:52.984Z,83.20
2017-12-16T23:56:20.400Z,83.20
2017-12-16T23:58:47.823Z,83.00
